Time;durP1;ratioP1;P1;durP2;ratioP2;P2;SDS_P1;SDS_P2;PMS_P1;PMS_P2;Temp;Humidity;BMP_temperature;BMP_pressure;BME280_temperature;BME280_humidity;BME280_pressure;Samples;Min_cycle;Max_cycle;Signal;HPM_P1;HPM_P2
2023/05/26 00:00:07;;;;;;;9.57;3.15;;;8.20;99.90;;;;;;5093719;28;20040;-71
2023/05/26 00:02:36;;;;;;;18.80;3.28;;;8.20;99.90;;;;;;5093141;28;20490;-71
2023/05/26 00:05:06;;;;;;;10.27;2.95;;;8.20;99.90;;;;;;5093162;28;20032;-70
2023/05/26 00:07:33;;;;;;;15.45;3.38;;;8.20;99.90;;;;;;5093073;28;20130;-71
2023/05/26 00:09:58;;;;;;;16.75;2.90;;;8.20;99.90;;;;;;5093217;28;20422;-72
2023/05/26 00:12:24;;;;;;;14.68;3.63;;;8.20;99.90;;;;;;5093174;28;20039;-70
2023/05/26 00:14:50;;;;;;;18.77;2.90;;;8.20;99.90;;;;;;5093288;28;20036;-70
2023/05/26 00:17:19;;;;;;;14.43;3.13;;;8.20;99.90;;;;;;5093215;28;20097;-71
2023/05/26 00:19:44;;;;;;;16.05;3.03;;;7.90;99.90;;;;;;5093170;28;20043;-72
2023/05/26 00:22:12;;;;;;;19.65;3.40;;;8.20;99.90;;;;;;5093650;28;20036;-70
2023/05/26 00:24:38;;;;;;;19.20;3.53;;;8.20;99.90;;;;;;5097274;28;20032;-71
2023/05/26 00:27:04;;;;;;;17.90;3.70;;;8.10;99.90;;;;;;5096743;28;20101;-71
2023/05/26 00:29:30;;;;;;;21.63;3.53;;;8.10;99.90;;;;;;5095664;28;20031;-71
2023/05/26 00:31:56;;;;;;;13.23;3.53;;;8.20;99.90;;;;;;5096807;28;20266;-70
2023/05/26 00:34:22;;;;;;;10.30;3.28;;;8.20;99.90;;;;;;5096741;28;20036;-70
2023/05/26 00:36:47;;;;;;;12.65;3.13;;;8.10;99.90;;;;;;5096630;28;20126;-71
2023/05/26 00:39:13;;;;;;;16.65;3.63;;;8.10;99.90;;;;;;5096662;28;20040;-71
2023/05/26 00:41:39;;;;;;;11.48;3.50;;;8.00;99.90;;;;;;5095567;28;20418;-71
2023/05/26 00:44:04;;;;;;;19.10;3.28;;;8.00;99.90;;;;;;5096417;28;20127;-72
2023/05/26 00:46:30;;;;;;;19.10;3.30;;;8.00;99.90;;;;;;5095298;28;20403;-71
2023/05/26 00:48:56;;;;;;;12.35;3.78;;;8.00;99.90;;;;;;5096401;28;20079;-69
2023/05/26 00:51:22;;;;;;;13.73;2.95;;;8.00;99.90;;;;;;5096343;28;20032;-70
2023/05/26 00:53:48;;;;;;;14.63;3.03;;;7.90;99.90;;;;;;5096303;28;20044;-70
2023/05/26 00:56:18;;;;;;;19.25;3.65;;;7.90;99.90;;;;;;5096628;28;20070;-70
2023/05/26 00:58:44;;;;;;;13.90;2.72;;;7.90;99.90;;;;;;5096493;28;20044;-70
2023/05/26 01:01:10;;;;;;;14.68;3.00;;;7.80;99.90;;;;;;5096328;28;20051;-69
2023/05/26 01:03:39;;;;;;;13.90;3.03;;;7.80;99.90;;;;;;5096062;28;20043;-70
2023/05/26 01:06:05;;;;;;;12.68;3.15;;;7.80;99.90;;;;;;5096022;28;20032;-69
2023/05/26 01:08:32;;;;;;;12.38;2.50;;;7.80;99.90;;;;;;5096872;28;20388;-71
2023/05/26 01:11:08;;;;;;;12.13;3.03;;;7.80;99.90;;;;;;5096007;28;20036;-69
2023/05/26 01:13:47;;;;;;;14.75;2.70;;;7.70;99.90;;;;;;5096166;28;20379;-71
2023/05/26 01:16:16;;;;;;;14.43;3.10;;;7.60;99.90;;;;;;5095993;28;20039;-70
2023/05/26 01:18:45;;;;;;;13.35;2.75;;;7.60;99.90;;;;;;5095706;28;20036;-69
2023/05/26 01:21:13;;;;;;;15.55;3.47;;;7.60;99.90;;;;;;5095882;28;20439;-70
2023/05/26 01:24:11;;;;;;;15.50;3.13;;;7.60;99.90;;;;;;5095700;28;20079;-70
2023/05/26 01:27:12;;;;;;;21.35;3.42;;;7.50;99.90;;;;;;5095659;28;20040;-71
2023/05/26 01:29:39;;;;;;;17.23;2.88;;;7.50;99.90;;;;;;5090066;28;20376;-70
2023/05/26 01:32:10;;;;;;;22.10;3.85;;;7.50;99.90;;;;;;5095579;28;20044;-70
2023/05/26 01:34:36;;;;;;;9.50;2.60;;;7.50;99.90;;;;;;5094954;28;20082;-71
2023/05/26 01:37:02;;;;;;;15.77;2.85;;;7.40;99.90;;;;;;5095507;28;20040;-69
2023/05/26 01:39:27;;;;;;;14.98;3.67;;;7.40;99.90;;;;;;5095389;28;20040;-70
2023/05/26 01:42:18;;;;;;;9.57;2.58;;;7.30;99.90;;;;;;5095590;28;20082;-70
2023/05/26 01:45:09;;;;;;;18.02;3.50;;;7.30;99.90;;;;;;5095536;28;20032;-71
2023/05/26 01:47:36;;;;;;;14.80;3.20;;;7.30;99.90;;;;;;5095464;28;20123;-71
2023/05/26 01:50:04;;;;;;;19.35;3.88;;;7.20;99.90;;;;;;5095237;28;20040;-71
2023/05/26 01:52:31;;;;;;;16.10;4.22;;;7.20;99.90;;;;;;5095162;28;20036;-70
2023/05/26 01:55:00;;;;;;;17.05;3.10;;;7.20;99.90;;;;;;5095182;28;20032;-71
2023/05/26 01:57:28;;;;;;;13.02;3.38;;;7.20;99.90;;;;;;5094887;28;20122;-71
2023/05/26 01:59:55;;;;;;;17.25;3.70;;;7.10;99.90;;;;;;5094762;28;20088;-70
2023/05/26 02:02:21;;;;;;;13.02;3.15;;;7.10;99.90;;;;;;5095023;28;20081;-70
2023/05/26 02:04:46;;;;;;;11.70;2.97;;;7.40;99.90;;;;;;5094827;28;20036;-70
2023/05/26 02:07:12;;;;;;;20.75;2.90;;;7.00;99.90;;;;;;5094534;28;20052;-71
2023/05/26 02:09:37;;;;;;;12.77;2.75;;;7.00;99.90;;;;;;5094906;28;20079;-70
2023/05/26 02:12:05;;;;;;;14.50;2.97;;;7.20;99.90;;;;;;5094623;28;20549;-71
2023/05/26 02:14:31;;;;;;;11.82;2.58;;;7.00;99.90;;;;;;5094891;28;20047;-69
2023/05/26 02:16:57;;;;;;;20.85;3.05;;;7.00;99.90;;;;;;5094660;28;20375;-71
2023/05/26 02:19:23;;;;;;;14.73;2.83;;;7.00;99.90;;;;;;5094599;28;20366;-70
2023/05/26 02:21:48;;;;;;;15.65;3.75;;;6.90;99.90;;;;;;5094558;28;20039;-70
2023/05/26 02:24:14;;;;;;;11.80;3.33;;;6.90;99.90;;;;;;5094516;28;20452;-71
2023/05/26 02:26:40;;;;;;;11.30;2.78;;;6.90;99.90;;;;;;5094451;28;20146;-71
2023/05/26 02:29:05;;;;;;;14.23;3.05;;;6.80;99.90;;;;;;5094514;28;20083;-70
2023/05/26 02:31:33;;;;;;;9.50;2.80;;;6.80;99.90;;;;;;5094494;28;20032;-70
2023/05/26 02:33:58;;;;;;;12.32;3.28;;;6.80;99.90;;;;;;5093191;28;20050;-71
2023/05/26 02:36:25;;;;;;;16.88;3.63;;;6.70;99.90;;;;;;5094288;28;20037;-70
2023/05/26 02:38:50;;;;;;;13.57;3.55;;;6.70;99.90;;;;;;5094344;28;20144;-71
2023/05/26 02:41:16;;;;;;;15.95;3.05;;;6.70;99.90;;;;;;5094554;28;20083;-70
2023/05/26 02:43:41;;;;;;;12.75;3.05;;;6.60;99.90;;;;;;5094168;28;20028;-72
2023/05/26 02:46:07;;;;;;;9.45;2.88;;;7.20;99.90;;;;;;5093355;28;20079;-70
2023/05/26 02:48:32;;;;;;;12.05;3.33;;;6.60;99.90;;;;;;5094065;28;20051;-70
2023/05/26 02:50:59;;;;;;;19.33;3.00;;;6.60;99.90;;;;;;5094140;28;20043;-72
2023/05/26 02:53:25;;;;;;;15.07;2.97;;;6.50;99.90;;;;;;5094164;28;20139;-71
2023/05/26 02:55:50;;;;;;;17.95;4.25;;;6.50;99.90;;;;;;5094123;28;20036;-70
2023/05/26 02:58:16;;;;;;;17.58;3.25;;;6.50;99.90;;;;;;5094009;28;20036;-70
2023/05/26 03:00:42;;;;;;;13.27;3.17;;;6.40;99.90;;;;;;5093956;28;20044;-70
2023/05/26 03:03:08;;;;;;;18.50;4.05;;;6.50;99.90;;;;;;5093799;28;20043;-70
2023/05/26 03:05:33;;;;;;;13.43;4.28;;;6.40;99.90;;;;;;5093963;28;20044;-70
2023/05/26 03:07:59;;;;;;;12.38;3.13;;;6.40;99.90;;;;;;5094350;28;20048;-71
2023/05/26 03:10:24;;;;;;;11.93;3.10;;;6.40;99.90;;;;;;5093920;28;20492;-71
2023/05/26 03:12:50;;;;;;;18.42;3.95;;;6.40;99.90;;;;;;5093863;28;20047;-69
2023/05/26 03:15:16;;;;;;;18.00;3.38;;;6.40;99.90;;;;;;5093668;28;20372;-69
2023/05/26 03:17:41;;;;;;;11.25;3.40;;;6.40;99.90;;;;;;5092387;28;20068;-70
2023/05/26 03:20:07;;;;;;;15.50;3.00;;;6.30;99.90;;;;;;5093546;28;20047;-71
2023/05/26 03:22:32;;;;;;;17.55;3.22;;;6.30;99.90;;;;;;5093567;28;20036;-71
2023/05/26 03:24:58;;;;;;;15.38;3.10;;;6.30;99.90;;;;;;5093488;28;20043;-71
2023/05/26 03:27:24;;;;;;;14.07;3.13;;;6.30;99.90;;;;;;5093743;28;20058;-70
2023/05/26 03:29:50;;;;;;;14.10;3.30;;;6.90;99.90;;;;;;5093606;28;20028;-70
2023/05/26 03:32:16;;;;;;;11.13;3.10;;;6.30;99.90;;;;;;5093614;28;20047;-70
2023/05/26 03:34:41;;;;;;;10.00;2.58;;;6.40;99.90;;;;;;5093574;28;20040;-70
2023/05/26 03:37:07;;;;;;;16.60;3.83;;;6.40;99.90;;;;;;5093963;28;20139;-71
2023/05/26 03:39:33;;;;;;;19.15;3.08;;;6.30;99.90;;;;;;5093457;28;20040;-69
2023/05/26 03:41:59;;;;;;;13.83;3.03;;;6.40;99.90;;;;;;5093580;28;20126;-70
2023/05/26 03:44:26;;;;;;;15.27;3.47;;;6.40;99.90;;;;;;5093201;28;20633;-69
2023/05/26 03:46:52;;;;;;;11.52;3.45;;;6.40;99.90;;;;;;5093446;28;20039;-71
2023/05/26 03:49:17;;;;;;;12.25;3.45;;;6.40;99.90;;;;;;5093431;28;20387;-69
2023/05/26 03:51:43;;;;;;;11.48;2.97;;;7.10;99.90;;;;;;5093221;28;20462;-70
2023/05/26 03:54:09;;;;;;;14.82;3.80;;;6.40;99.90;;;;;;5092267;28;20454;-70
2023/05/26 03:56:34;;;;;;;17.73;3.25;;;6.40;99.90;;;;;;5093121;28;20044;-71
2023/05/26 03:59:01;;;;;;;15.38;3.15;;;6.40;99.90;;;;;;5097098;28;20035;-70
2023/05/26 04:01:27;;;;;;;14.48;3.40;;;6.40;99.90;;;;;;5097364;28;20055;-70
2023/05/26 04:03:52;;;;;;;13.68;3.17;;;6.40;99.90;;;;;;5097162;28;20040;-69
2023/05/26 04:06:18;;;;;;;15.13;3.65;;;6.50;99.90;;;;;;5097025;28;20051;-70
2023/05/26 04:08:43;;;;;;;18.25;3.10;;;6.50;99.90;;;;;;5097691;28;20062;-70
2023/05/26 04:11:09;;;;;;;14.15;3.45;;;6.50;99.90;;;;;;5097174;28;20036;-70
2023/05/26 04:13:38;;;;;;;9.95;2.70;;;6.60;99.90;;;;;;5097158;28;20039;-69
2023/05/26 04:16:04;;;;;;;14.25;3.08;;;6.60;99.90;;;;;;5097067;28;20353;-70
2023/05/26 04:18:29;;;;;;;18.42;3.38;;;6.70;99.90;;;;;;5096938;28;20043;-71
2023/05/26 04:20:55;;;;;;;13.57;3.08;;;6.80;99.90;;;;;;5097066;28;20087;-70
2023/05/26 04:23:21;;;;;;;16.52;3.63;;;6.80;99.90;;;;;;5096905;28;20474;-70
2023/05/26 04:25:46;;;;;;;10.68;3.50;;;6.80;99.90;;;;;;5096886;28;20032;-70
2023/05/26 04:28:14;;;;;;;17.95;2.80;;;6.90;99.90;;;;;;5096871;28;20083;-71
2023/05/26 04:30:40;;;;;;;;;;;7.00;99.90;;;;;;5097258;28;20048;-70
2023/05/26 04:33:07;;;;;;;19.33;3.05;;;7.10;99.90;;;;;;5096631;28;19919;-70
2023/05/26 04:35:34;;;;;;;15.73;4.38;;;7.20;99.90;;;;;;5096478;28;20441;-70
2023/05/26 04:37:59;;;;;;;20.55;3.60;;;7.20;99.90;;;;;;5096668;28;20118;-70
2023/05/26 04:40:25;;;;;;;12.73;3.05;;;7.30;99.90;;;;;;5097000;28;20075;-69
2023/05/26 04:42:51;;;;;;;17.05;3.00;;;7.50;99.90;;;;;;5096558;28;20478;-69
2023/05/26 04:45:17;;;;;;;15.13;3.58;;;7.60;99.90;;;;;;5096271;28;20036;-70
2023/05/26 04:47:43;;;;;;;12.25;3.22;;;7.60;99.90;;;;;;5096335;28;20036;-70
2023/05/26 04:50:12;;;;;;;13.55;3.45;;;7.70;99.90;;;;;;5096146;28;20028;-70
2023/05/26 04:52:41;;;;;;;18.92;4.07;;;7.80;99.90;;;;;;5096535;28;20040;-71
2023/05/26 04:55:08;;;;;;;13.20;3.70;;;7.90;99.90;;;;;;5096956;28;20040;-71
2023/05/26 04:57:33;;;;;;;18.55;3.58;;;7.90;99.90;;;;;;5096026;28;20043;-70
2023/05/26 04:59:59;;;;;;;15.35;4.80;;;7.90;99.90;;;;;;5096277;28;20044;-70
2023/05/26 05:02:24;;;;;;;20.45;3.83;;;8.00;99.90;;;;;;5096153;28;20464;-71
2023/05/26 05:04:51;;;;;;;20.73;4.03;;;8.00;99.90;;;;;;5096081;28;20044;-70
2023/05/26 05:07:16;;;;;;;16.35;3.53;;;8.10;99.90;;;;;;5095752;28;20055;-70
2023/05/26 05:09:42;;;;;;;13.80;3.15;;;8.20;99.90;;;;;;5095209;28;20036;-70
2023/05/26 05:12:08;;;;;;;20.60;3.53;;;8.20;99.90;;;;;;5096026;28;20036;-71
2023/05/26 05:14:33;;;;;;;12.60;3.63;;;8.30;99.90;;;;;;5095985;28;20047;-70
2023/05/26 05:17:00;;;;;;;19.88;3.33;;;8.30;99.90;;;;;;5095813;28;20040;-70
2023/05/26 05:19:26;;;;;;;11.43;3.63;;;8.40;99.90;;;;;;5095573;28;20479;-71
2023/05/26 05:21:52;;;;;;;16.48;3.85;;;8.50;99.90;;;;;;5095844;28;20278;-70
2023/05/26 05:24:17;;;;;;;15.32;3.58;;;8.80;99.90;;;;;;5095700;28;20047;-70
2023/05/26 05:26:43;;;;;;;15.20;3.28;;;8.80;99.90;;;;;;5095756;28;20122;-70
2023/05/26 05:29:08;;;;;;;13.73;2.95;;;8.80;99.90;;;;;;5095744;28;20089;-70
2023/05/26 05:31:34;;;;;;;17.20;3.42;;;9.00;99.90;;;;;;5095635;28;20119;-71
2023/05/26 05:34:00;;;;;;;13.55;3.45;;;9.20;99.90;;;;;;5096015;28;20097;-71
2023/05/26 05:36:25;;;;;;;17.27;3.80;;;9.40;99.90;;;;;;5095260;28;20408;-70
2023/05/26 05:38:51;;;;;;;15.05;4.20;;;9.50;99.90;;;;;;5095770;28;20047;-70
2023/05/26 05:41:17;;;;;;;23.83;3.40;;;9.70;99.90;;;;;;5095560;28;20036;-71
2023/05/26 05:43:42;;;;;;;20.20;3.55;;;9.90;99.90;;;;;;5095427;28;20560;-71
2023/05/26 05:46:08;;;;;;;12.50;3.08;;;10.00;99.90;;;;;;5095380;28;20036;-71
2023/05/26 05:48:34;;;;;;;15.32;3.53;;;10.10;99.90;;;;;;5095358;28;20405;-70
2023/05/26 05:51:00;;;;;;;14.75;3.08;;;10.30;99.90;;;;;;5094090;28;20127;-71
2023/05/26 05:53:26;;;;;;;16.08;3.38;;;10.60;99.90;;;;;;5095232;28;20055;-70
2023/05/26 05:55:51;;;;;;;18.33;4.20;;;10.70;99.90;;;;;;5095038;28;20167;-72
2023/05/26 05:58:17;;;;;;;13.75;3.70;;;10.90;99.90;;;;;;5095213;28;20036;-70
2023/05/26 06:00:42;;;;;;;16.08;3.53;;;11.00;99.90;;;;;;5095073;28;20501;-71
2023/05/26 06:03:08;;;;;;;15.20;3.33;;;11.00;99.90;;;;;;5094777;28;20078;-71
2023/05/26 06:05:34;;;;;;;16.00;3.15;;;11.00;99.90;;;;;;5094941;28;20513;-71
2023/05/26 06:08:00;;;;;;;11.20;3.53;;;11.00;99.90;;;;;;5094973;28;20143;-70
2023/05/26 06:10:26;;;;;;;14.02;3.47;;;11.10;99.90;;;;;;5093928;28;20043;-71
2023/05/26 06:12:51;;;;;;;22.20;3.70;;;11.20;99.90;;;;;;5094809;28;20422;-70
2023/05/26 06:15:18;;;;;;;15.40;3.58;;;11.00;99.90;;;;;;5094796;28;20128;-72
2023/05/26 06:17:44;;;;;;;14.48;3.47;;;11.20;99.90;;;;;;5093694;28;20043;-71
2023/05/26 06:20:10;;;;;;;15.32;3.28;;;11.30;99.90;;;;;;5094540;28;20493;-70
2023/05/26 06:22:36;;;;;;;14.37;3.50;;;11.30;99.90;;;;;;5094590;28;20032;-71
2023/05/26 06:25:03;;;;;;;11.85;2.38;;;11.40;99.90;;;;;;5094536;28;20411;-70
2023/05/26 06:27:29;;;;;;;14.93;2.78;;;11.30;99.90;;;;;;5094534;28;20047;-71
2023/05/26 06:29:54;;;;;;;17.92;2.92;;;11.30;99.90;;;;;;5094494;28;20043;-70
2023/05/26 06:32:20;;;;;;;14.02;2.55;;;11.40;99.90;;;;;;5094442;28;20028;-70
2023/05/26 06:34:46;;;;;;;15.07;3.28;;;11.40;99.90;;;;;;5094443;28;20040;-70
2023/05/26 06:37:12;;;;;;;15.00;3.42;;;11.40;99.90;;;;;;5094629;28;20036;-71
2023/05/26 06:39:37;;;;;;;12.93;2.70;;;11.40;99.90;;;;;;5094379;28;20043;-71
2023/05/26 06:42:03;;;;;;;16.08;3.03;;;12.00;99.90;;;;;;5094450;28;20074;-70
2023/05/26 06:44:29;;;;;;;11.77;2.40;;;11.70;99.90;;;;;;5092877;28;20123;-71
2023/05/26 06:46:55;;;;;;;10.23;2.83;;;11.70;99.90;;;;;;5094497;28;20368;-71
2023/05/26 06:49:21;;;;;;;10.77;2.95;;;11.80;99.90;;;;;;5094151;28;20044;-71
2023/05/26 06:51:46;;;;;;;8.52;2.55;;;11.90;99.90;;;;;;5094623;28;20047;-71
2023/05/26 06:54:12;;;;;;;11.23;2.83;;;12.10;99.90;;;;;;5094412;28;20047;-71
2023/05/26 06:56:38;;;;;;;11.73;2.58;;;12.40;99.90;;;;;;5109260;28;20050;-73
2023/05/26 06:59:04;;;;;;;15.75;3.13;;;12.60;99.90;;;;;;5114006;28;20098;-71
2023/05/26 07:01:29;;;;;;;14.98;3.03;;;12.60;99.90;;;;;;5106029;28;20449;-69
2023/05/26 07:03:55;;;;;;;12.13;3.03;;;12.70;99.90;;;;;;5114183;28;20058;-69
2023/05/26 07:06:20;;;;;;;12.07;2.70;;;12.90;99.90;;;;;;5114045;28;20043;-71
2023/05/26 07:08:46;;;;;;;13.30;2.72;;;13.10;99.90;;;;;;5114610;28;20036;-70
2023/05/26 07:11:12;;;;;;;9.90;3.00;;;13.30;99.90;;;;;;5112331;28;20073;-74
2023/05/26 07:13:37;;;;;;;16.52;3.08;;;13.40;99.90;;;;;;5110840;28;20534;-71
2023/05/26 07:16:03;;;;;;;13.15;2.97;;;13.50;99.90;;;;;;5113883;28;20058;-70
2023/05/26 07:18:28;;;;;;;11.23;2.33;;;13.60;99.90;;;;;;5111825;28;20037;-70
2023/05/26 07:20:56;;;;;;;17.95;2.78;;;13.70;99.90;;;;;;5111642;28;20059;-70
2023/05/26 07:23:21;;;;;;;14.05;2.40;;;13.70;99.90;;;;;;5111901;28;20046;-69
2023/05/26 07:25:47;;;;;;;9.40;2.53;;;13.60;99.90;;;;;;5111770;28;20035;-81
2023/05/26 07:28:12;;;;;;;11.48;2.67;;;13.30;99.90;;;;;;5147126;27;20040;-69
2023/05/26 07:30:38;;;;;;;14.10;2.88;;;13.10;99.90;;;;;;5113267;28;20063;-70
2023/05/26 07:33:03;;;;;;;15.48;3.10;;;13.00;99.90;;;;;;5117839;28;20050;-71
2023/05/26 07:35:29;;;;;;;14.68;2.92;;;13.00;99.90;;;;;;5119609;28;20086;-69
2023/05/26 07:37:56;;;;;;;15.38;3.38;;;13.20;99.90;;;;;;5120701;28;20051;-70
2023/05/26 07:40:21;;;;;;;11.23;2.53;;;13.40;99.90;;;;;;5120762;27;20043;-70
2023/05/26 07:42:47;;;;;;;10.85;2.72;;;13.70;99.90;;;;;;5120748;28;20105;-69
2023/05/26 07:45:12;;;;;;;12.43;2.83;;;14.00;99.90;;;;;;5120504;28;20032;-70
2023/05/26 07:47:38;;;;;;;13.02;4.18;;;14.10;99.90;;;;;;5120700;28;20035;-69
2023/05/26 07:50:04;;;;;;;10.55;2.67;;;14.30;99.90;;;;;;5120640;27;20104;-71
2023/05/26 07:52:30;;;;;;;13.47;3.00;;;14.50;99.90;;;;;;5120621;27;20043;-71
2023/05/26 07:54:56;;;;;;;8.85;2.55;;;14.60;99.90;;;;;;5120737;28;20122;-70
2023/05/26 07:57:22;;;;;;;16.10;3.38;;;14.70;99.90;;;;;;5120560;27;20040;-70
2023/05/26 07:59:48;;;;;;;15.40;3.38;;;14.70;99.90;;;;;;5120519;28;20063;-70
2023/05/26 08:02:13;;;;;;;13.48;3.10;;;14.70;99.90;;;;;;5120429;28;20056;-69
2023/05/26 08:04:39;;;;;;;13.73;3.10;;;14.70;99.90;;;;;;5120436;28;20123;-70
2023/05/26 08:07:05;;;;;;;12.65;2.80;;;14.90;99.90;;;;;;5120141;28;20130;-71
2023/05/26 08:09:30;;;;;;;7.00;2.43;;;15.00;99.90;;;;;;5120378;28;20044;-70
2023/05/26 08:11:56;;;;;;;11.43;2.75;;;14.80;99.90;;;;;;5120468;28;20058;-70
2023/05/26 08:14:23;;;;;;;10.68;2.65;;;14.90;99.90;;;;;;5120363;28;20486;-70
2023/05/26 08:16:49;;;;;;;8.18;2.45;;;14.90;99.90;;;;;;5120346;27;20066;-71
2023/05/26 08:19:14;;;;;;;9.80;2.70;;;14.90;99.90;;;;;;5120737;27;20802;-70
2023/05/26 08:21:40;;;;;;;18.52;2.92;;;14.90;99.90;;;;;;5120328;28;20452;-69
2023/05/26 08:24:05;;;;;;;14.40;2.77;;;15.00;99.90;;;;;;5120513;28;20039;-70
2023/05/26 08:26:31;;;;;;;11.90;2.78;;;15.00;99.90;;;;;;5120323;28;20067;-70
2023/05/26 08:28:57;;;;;;;12.40;2.63;;;15.20;99.90;;;;;;5120329;27;20032;-71
2023/05/26 08:31:22;;;;;;;9.82;2.63;;;15.20;99.90;;;;;;5120160;28;20455;-70
2023/05/26 08:33:48;;;;;;;16.63;2.47;;;15.20;99.90;;;;;;5120210;28;20082;-70
2023/05/26 08:36:14;;;;;;;7.45;2.22;;;15.10;99.90;;;;;;5120182;28;20040;-70
2023/05/26 08:38:40;;;;;;;9.63;2.93;;;15.10;99.90;;;;;;5120061;28;20386;-71
2023/05/26 08:41:07;;;;;;;16.20;2.95;;;15.10;99.90;;;;;;5120177;27;20044;-69
2023/05/26 08:43:44;;;;;;;12.80;2.47;;;15.40;99.90;;;;;;5119250;27;20043;-70
2023/05/26 08:46:11;;;;;;;16.30;3.25;;;15.40;99.90;;;;;;5117088;28;20127;-71
2023/05/26 08:48:37;;;;;;;;;;;15.40;99.90;;;;;;5117272;28;20088;-71
2023/05/26 08:51:08;;;;;;;13.40;2.92;;;15.40;99.90;;;;;;5116834;28;20309;-71
2023/05/26 08:53:35;;;;;;;11.20;2.58;;;15.40;99.90;;;;;;5117133;28;20043;-70
2023/05/26 08:56:02;;;;;;;11.27;2.47;;;15.30;99.90;;;;;;5116757;28;20039;-70
2023/05/26 08:58:29;;;;;;;10.88;2.70;;;15.50;99.90;;;;;;5116690;28;20035;-70
2023/05/26 09:00:55;;;;;;;7.50;2.63;;;15.60;99.90;;;;;;5117072;28;20061;-70
2023/05/26 09:03:21;;;;;;;8.93;2.47;;;15.80;99.90;;;;;;5116918;28;20047;-70
2023/05/26 09:05:46;;;;;;;16.00;2.80;;;15.90;99.90;;;;;;5116230;28;20047;-70
2023/05/26 09:08:12;;;;;;;8.77;2.47;;;15.90;99.90;;;;;;5116730;28;20051;-69
2023/05/26 09:10:38;;;;;;;11.95;2.80;;;16.00;99.90;;;;;;5116531;28;20111;-70
2023/05/26 09:13:06;;;;;;;13.27;2.92;;;15.90;99.90;;;;;;5115447;28;20577;-71
2023/05/26 09:15:33;;;;;;;9.55;2.47;;;15.90;99.90;;;;;;5116376;28;20035;-70
2023/05/26 09:18:08;;;;;;;10.80;2.50;;;15.80;99.90;;;;;;5116256;28;20031;-70
2023/05/26 09:20:48;;;;;;;9.98;2.42;;;15.90;99.90;;;;;;5116304;28;20082;-70
2023/05/26 09:23:21;;;;;;;8.38;2.75;;;15.80;99.90;;;;;;5116099;28;20039;-70
2023/05/26 09:25:49;;;;;;;9.50;3.00;;;15.90;99.90;;;;;;5115908;28;20044;-70
2023/05/26 09:28:15;;;;;;;11.82;2.63;;;16.00;99.90;;;;;;5116642;28;20055;-70
2023/05/26 09:30:42;;;;;;;18.00;2.70;;;16.10;99.90;;;;;;5116099;28;20035;-70
2023/05/26 09:33:16;;;;;;;7.15;2.42;;;16.10;99.90;;;;;;5115936;28;20063;-70
2023/05/26 09:35:48;;;;;;;11.50;2.65;;;16.00;99.90;;;;;;5115719;28;20374;-71
2023/05/26 09:38:16;;;;;;;11.98;2.40;;;16.10;99.90;;;;;;5115867;28;20467;-70
2023/05/26 09:40:42;;;;;;;6.78;2.22;;;16.20;99.90;;;;;;5115861;28;20135;-70
2023/05/26 09:43:08;;;;;;;9.03;3.00;;;16.20;99.90;;;;;;5115466;28;20038;-71
2023/05/26 09:45:35;;;;;;;9.35;2.85;;;16.30;99.90;;;;;;5115829;28;20828;-70
2023/05/26 09:48:05;;;;;;;8.27;2.38;;;16.20;99.90;;;;;;5115853;28;20430;-70
2023/05/26 09:50:36;;;;;;;8.23;2.25;;;16.40;99.90;;;;;;5115634;28;20367;-70
2023/05/26 09:53:03;;;;;;;8.70;2.30;;;16.40;99.90;;;;;;5115599;28;20035;-70
2023/05/26 09:55:30;;;;;;;14.07;2.95;;;16.60;99.90;;;;;;5114744;28;20463;-71
2023/05/26 09:58:04;;;;;;;12.23;2.88;;;16.70;99.90;;;;;;5115805;28;20036;-69
2023/05/26 10:00:31;;;;;;;12.35;2.55;;;17.00;99.90;;;;;;5115158;28;20506;-69
2023/05/26 10:02:56;;;;;;;;;;;16.90;99.90;;;;;;5115880;28;20055;-70
2023/05/26 10:05:22;;;;;;;6.22;2.17;;;17.10;99.90;;;;;;5115168;28;19915;-69
2023/05/26 10:07:51;;;;;;;11.13;3.22;;;17.10;99.90;;;;;;5115265;28;20048;-70
2023/05/26 10:10:17;;;;;;;10.32;2.35;;;17.30;99.90;;;;;;5115223;28;20083;-70
2023/05/26 10:12:43;;;;;;;9.73;2.10;;;17.20;99.90;;;;;;5114364;28;20361;-70
2023/05/26 10:15:10;;;;;;;8.80;2.37;;;17.30;99.90;;;;;;5115166;28;20042;-70
2023/05/26 10:17:35;;;;;;;10.50;2.05;;;17.60;99.90;;;;;;5115178;28;20035;-69
2023/05/26 10:20:03;;;;;;;13.10;2.80;;;17.60;99.90;;;;;;5115018;28;20035;-71
2023/05/26 10:22:41;;;;;;;8.30;2.50;;;17.60;99.90;;;;;;5114962;28;20044;-70
2023/05/26 10:25:17;;;;;;;8.10;2.10;;;17.70;99.90;;;;;;5114919;28;20084;-71
2023/05/26 10:27:59;;;;;;;6.88;2.33;;;17.70;99.90;;;;;;5115159;28;20387;-70
2023/05/26 10:30:26;;;;;;;7.35;1.98;;;17.70;99.90;;;;;;5114814;28;20048;-69
2023/05/26 10:32:54;;;;;;;7.13;2.10;;;17.70;99.90;;;;;;5114840;28;20080;-71
2023/05/26 10:35:31;;;;;;;6.70;2.10;;;17.70;99.90;;;;;;5115165;28;20032;-71
2023/05/26 10:38:02;;;;;;;7.45;2.13;;;18.00;99.90;;;;;;5114821;28;20467;-70
2023/05/26 10:40:49;;;;;;;9.20;2.05;;;18.00;99.40;;;;;;5114604;28;20044;-70
2023/05/26 10:43:20;;;;;;;7.43;2.23;;;18.00;99.10;;;;;;5114717;28;20044;-70
2023/05/26 10:46:00;;;;;;;7.78;1.92;;;18.20;99.90;;;;;;5114429;28;20052;-71
2023/05/26 10:48:35;;;;;;;6.75;2.13;;;18.30;99.40;;;;;;5114665;28;20080;-70
2023/05/26 10:51:14;;;;;;;10.40;2.22;;;18.20;99.40;;;;;;5114408;28;20039;-71
2023/05/26 10:53:45;;;;;;;7.25;2.15;;;18.40;99.70;;;;;;5114284;28;20062;-70
2023/05/26 10:56:13;;;;;;;6.88;2.20;;;18.40;99.00;;;;;;5114532;28;20043;-70
2023/05/26 10:58:46;;;;;;;9.15;2.22;;;18.30;98.70;;;;;;5114724;28;20118;-71
2023/05/26 11:01:16;;;;;;;11.07;2.03;;;18.30;98.10;;;;;;5114700;28;20097;-71
2023/05/26 11:04:37;;;;;;;8.57;2.15;;;18.20;98.00;;;;;;5114143;28;20043;-70
2023/05/26 11:07:03;;;;;;;6.20;1.80;;;18.10;98.00;;;;;;5100388;28;20096;-69
2023/05/26 11:09:29;;;;;;;11.80;2.17;;;18.30;98.80;;;;;;5114322;28;20043;-70
2023/05/26 11:12:04;;;;;;;7.17;2.33;;;18.10;98.50;;;;;;5114166;28;20053;-69
2023/05/26 11:14:33;;;;;;;8.57;2.35;;;18.10;97.90;;;;;;5114210;28;20081;-69
2023/05/26 11:17:01;;;;;;;9.90;1.70;;;18.20;99.20;;;;;;5114219;28;20048;-69
2023/05/26 11:19:38;;;;;;;8.77;2.00;;;18.20;98.30;;;;;;5113788;28;20474;-70
2023/05/26 11:22:06;;;;;;;10.93;2.38;;;18.10;98.10;;;;;;5114194;28;20122;-69
2023/05/26 11:24:32;;;;;;;4.60;2.00;;;18.10;98.00;;;;;;5113990;28;20071;-69
2023/05/26 11:27:08;;;;;;;9.20;1.97;;;18.10;98.30;;;;;;5113101;28;20067;-69
2023/05/26 11:29:33;;;;;;;10.35;2.33;;;18.20;98.40;;;;;;5114453;28;20126;-69
2023/05/26 11:31:59;;;;;;;8.77;2.57;;;18.20;97.80;;;;;;5114294;28;20082;-69
2023/05/26 11:34:25;;;;;;;9.80;3.03;;;18.20;98.30;;;;;;5113728;28;20079;-69
2023/05/26 11:36:53;;;;;;;7.93;2.00;;;18.30;98.40;;;;;;5114263;28;20035;-70
2023/05/26 11:39:20;;;;;;;5.45;1.92;;;18.60;98.30;;;;;;5113806;28;20088;-70
2023/05/26 11:41:46;;;;;;;7.85;2.20;;;18.60;97.60;;;;;;5113865;28;20438;-68
2023/05/26 11:44:12;;;;;;;8.30;2.22;;;18.60;97.50;;;;;;5113911;28;20487;-70
2023/05/26 11:46:39;;;;;;;8.53;2.13;;;18.60;98.00;;;;;;5113921;28;20032;-68
2023/05/26 11:49:10;;;;;;;;;;;18.70;98.20;;;;;;5114574;28;20092;-68
2023/05/26 11:51:36;;;;;;;8.38;2.38;;;18.80;97.50;;;;;;5113884;28;20004;-70
2023/05/26 11:54:08;;;;;;;8.03;2.33;;;18.80;98.40;;;;;;5113920;28;20078;-68
2023/05/26 11:56:37;;;;;;;4.32;2.00;;;19.00;98.10;;;;;;5114361;28;20088;-69
2023/05/26 11:59:03;;;;;;;8.57;2.22;;;18.80;96.20;;;;;;5113685;28;20039;-69
2023/05/26 12:01:31;;;;;;;9.50;2.30;;;18.80;97.00;;;;;;5113666;28;20109;-69
2023/05/26 12:03:59;;;;;;;12.90;2.80;;;18.90;97.50;;;;;;5113991;28;20039;-70
2023/05/26 12:06:27;;;;;;;9.70;2.45;;;19.00;96.80;;;;;;5113626;28;20075;-69
2023/05/26 12:09:00;;;;;;;6.53;1.80;;;19.10;96.60;;;;;;5113644;28;20421;-70
2023/05/26 12:11:29;;;;;;;7.30;2.05;;;19.00;95.20;;;;;;5114098;28;20039;-70
2023/05/26 12:14:05;;;;;;;13.05;2.13;;;19.00;95.60;;;;;;5113897;28;20039;-69
2023/05/26 12:16:40;;;;;;;8.77;2.03;;;18.90;96.30;;;;;;5113810;28;20071;-69
2023/05/26 12:19:11;;;;;;;11.05;2.10;;;18.80;96.70;;;;;;5115780;28;20046;-70
2023/05/26 12:21:41;;;;;;;5.80;1.85;;;18.80;96.90;;;;;;5117737;28;20486;-70
2023/05/26 12:24:07;;;;;;;8.40;2.63;;;18.80;96.40;;;;;;5117264;28;20357;-69
2023/05/26 12:26:33;;;;;;;6.82;2.00;;;18.80;96.60;;;;;;5117401;28;20032;-70
2023/05/26 12:29:11;;;;;;;6.90;2.50;;;18.90;96.70;;;;;;5117214;28;20123;-69
2023/05/26 12:31:45;;;;;;;7.53;2.03;;;18.90;96.60;;;;;;5117268;28;20055;-69
2023/05/26 12:34:13;;;;;;;8.32;3.28;;;18.90;96.80;;;;;;5117152;28;20035;-70
2023/05/26 12:36:39;;;;;;;8.95;2.72;;;18.90;97.40;;;;;;5117090;28;20352;-69
2023/05/26 12:39:06;;;;;;;8.90;1.95;;;19.00;97.20;;;;;;5117059;28;20079;-69
2023/05/26 12:41:31;;;;;;;6.93;2.10;;;19.00;97.50;;;;;;5117221;28;20047;-70
2023/05/26 12:44:00;;;;;;;11.20;2.57;;;19.10;97.00;;;;;;5116973;28;20036;-69
2023/05/26 12:46:27;;;;;;;8.32;2.08;;;19.10;97.30;;;;;;5116852;28;20043;-70